This is the latest recevied weather packets stored in our database for station/object JA1RBY-13. If no packets are shown the sender has not sent any weather packets the latest 10 day(s).
| Time | Temp. | Humidity | Pressure | Rain* | Wind** | Luminosity | Snow |
|---|---|---|---|---|---|---|---|
| 1788257997 | 26.67° C | 65% | 1016.7 hPa | 0 mm | - | - | - |
| 1788256196 | 26.67° C | 64% | 1016.5 hPa | 0 mm | - | - | - |
| 1788254396 | 27.22° C | 64% | 1016.2 hPa | 0 mm | - | - | - |
| 1788250795 | 27.22° C | 63% | 1016 hPa | 0 mm | - | - | - |
| 1788248997 | 27.78° C | 61% | 1015.9 hPa | 0 mm | - | - | - |
| 1788247196 | 28.33° C | 59% | 1015.8 hPa | 0 mm | - | - | - |
| 1788245395 | 28.89° C | 56% | 1015.6 hPa | 0 mm | - | - | - |
| 1788243597 | 29.44° C | 54% | 1015.7 hPa | 0 mm | - | - | - |
| 1788241797 | 29.44° C | 55% | 1015.7 hPa | 0 mm | - | - | - |
| 1788239995 | 30.56° C | 52% | 1015.8 hPa | 0 mm | - | - | - |
| 1788238197 | 31.11° C | 51% | 1016.1 hPa | 0 mm | - | - | - |
| 1788221997 | 28.33° C | 57% | 1017.4 hPa | 0 mm | - | - | - |
| 1788216596 | 27.22° C | 60% | 1017.6 hPa | 0 mm | - | - | - |
| 1788214796 | 26.11° C | 62% | 1017.5 hPa | 0 mm | - | - | - |
| 1788212996 | 24.44° C | 67% | 1017.5 hPa | 0 mm | - | - | - |
| 1788211195 | 23.33° C | 68% | 1017.4 hPa | 0 mm | - | - | - |
| 1788209397 | 23.33° C | 68% | 1017.2 hPa | 0 mm | - | - | - |
| 1788207596 | 23.33° C | 68% | 1017.1 hPa | 0 mm | - | - | - |
| 1788203997 | 23.33° C | 67% | 1017.2 hPa | 0 mm | - | - | - |
| 1788202196 | 23.33° C | 67% | 1017.2 hPa | 0 mm | - | - | - |
| 1788200397 | 23.33° C | 67% | 1017.2 hPa | 0 mm | - | - | - |
| 1788196796 | 23.33° C | 67% | 1017.5 hPa | 0 mm | - | - | - |
| 1788194996 | 23.33° C | 67% | 1017.4 hPa | 0 mm | - | - | - |
| 1788193195 | 23.89° C | 67% | 1017.3 hPa | 0 mm | - | - | - |
| 1788191397 | 23.89° C | 67% | 1017.5 hPa | 0 mm | - | - | - |
* Rain latest hour (hover to see other rain measurements)
** Current wind speed in m/s (hover to see current wind gust speed)